FLL weather

Fort Lauderdale Hollywood International Airport
Fort Lauderdale, Florida, United States

Public forecast

Using degrees Fahrenheit for public forecast. Weather courtesy of forecast.io.

METAR (pilot weather report)

Retrieved 2018/12/13 02:53 UTC (36 minutes ago):

KFLL 130253Z 12010KT 10SM FEW043 SCT060 OVC250 22/12 A3017 RMK AO2 SLP216 T02170117 58000

TAF (pilot weather forecast)

Forecast is more than 12 hours old.

Retrieved 2018/12/12 00:30 UTC (1 day ago):

TAF KFLL 122327Z 1300/1406 09009KT P6SM BKN050 BKN060 BKN250 FM131700 13015KT P6SM BKN050 BKN250 FM132300 12011KT P6SM SCT050 BKN120 BKN250